Time;durP1;ratioP1;P1;durP2;ratioP2;P2;SDS_P1;SDS_P2;PMS_P1;PMS_P2;Temp;Humidity;BMP_temperature;BMP_pressure;BME280_temperature;BME280_humidity;BME280_pressure;Samples;Min_cycle;Max_cycle;Signal;HPM_P1;HPM_P2
2022/09/23 00:00:32;;;;;;;4.75;2.75;;;15.80;65.40;;;;;;4996467;28;20023;-83
2022/09/23 00:02:58;;;;;;;4.22;2.95;;;15.80;65.60;;;;;;5034705;28;20523;-83
2022/09/23 00:05:28;;;;;;;4.82;2.78;;;15.80;65.40;;;;;;5017431;28;20025;-83
2022/09/23 00:07:54;;;;;;;4.15;3.00;;;15.80;65.30;;;;;;5035529;28;20125;-83
2022/09/23 00:10:21;;;;;;;6.38;2.38;;;15.80;65.20;;;;;;5021550;28;20057;-83
2022/09/23 00:12:47;;;;;;;6.57;2.40;;;15.80;65.30;;;;;;5014345;28;20181;-83
2022/09/23 00:15:13;;;;;;;3.38;2.63;;;15.80;65.60;;;;;;4998975;28;20061;-83
2022/09/23 00:17:39;;;;;;;2.80;2.17;;;15.70;66.00;;;;;;4995782;28;20027;-83
2022/09/23 00:20:07;;;;;;;3.78;2.97;;;15.80;65.70;;;;;;5018275;28;20049;-83
2022/09/23 00:22:32;;;;;;;3.60;2.58;;;15.80;65.20;;;;;;5015571;28;20076;-83
2022/09/23 00:24:58;;;;;;;3.38;2.35;;;15.80;65.30;;;;;;5011078;28;20030;-83
2022/09/23 00:27:25;;;;;;;3.50;2.58;;;15.70;65.20;;;;;;4998619;28;20030;-83
2022/09/23 00:29:50;;;;;;;4.45;2.90;;;15.80;65.40;;;;;;4995789;28;20073;-84
2022/09/23 00:32:16;;;;;;;3.80;3.22;;;15.80;65.40;;;;;;5009953;28;20037;-83
2022/09/23 00:34:43;;;;;;;5.20;4.28;;;15.80;65.20;;;;;;5015078;28;20508;-84
2022/09/23 00:37:09;;;;;;;5.30;2.53;;;15.70;65.70;;;;;;5017828;28;20057;-83
2022/09/23 00:39:34;;;;;;;6.30;3.88;;;15.70;65.50;;;;;;5009931;28;20034;-83
2022/09/23 00:42:00;;;;;;;5.47;3.72;;;15.70;65.50;;;;;;4995737;28;20419;-84
2022/09/23 00:44:48;;;;;;;5.60;3.22;;;15.70;65.50;;;;;;4997293;28;20494;-83
2022/09/23 00:47:20;;;;;;;5.00;3.28;;;15.60;65.50;;;;;;5010600;28;20030;-83
2022/09/23 00:50:07;;;;;;;5.45;2.92;;;15.60;65.70;;;;;;5013208;28;20505;-83
2022/09/23 00:52:34;;;;;;;5.07;2.83;;;15.50;65.90;;;;;;4995619;28;20034;-83
2022/09/23 00:55:05;;;;;;;5.88;3.30;;;15.50;65.80;;;;;;4998034;28;20128;-83
2022/09/23 00:57:31;;;;;;;4.50;3.10;;;15.50;66.10;;;;;;4995505;28;20683;-83
2022/09/23 00:59:57;;;;;;;4.85;3.03;;;15.40;66.10;;;;;;4998657;28;20031;-83
2022/09/23 01:02:22;;;;;;;4.40;3.17;;;15.50;66.10;;;;;;4994786;28;20389;-83
2022/09/23 01:05:11;;;;;;;4.72;2.97;;;15.50;66.20;;;;;;4994418;28;20026;-83
2022/09/23 01:07:37;;;;;;;5.93;3.35;;;15.50;65.90;;;;;;4996553;28;20037;-83
2022/09/23 01:10:04;;;;;;;4.07;3.30;;;15.50;66.20;;;;;;4998985;28;20026;-83
2022/09/23 01:12:55;;;;;;;4.35;3.10;;;15.50;66.20;;;;;;5007914;28;20030;-84
2022/09/23 01:15:47;;;;;;;6.18;3.40;;;15.40;66.40;;;;;;4997618;28;20086;-83
2022/09/23 01:18:16;;;;;;;7.20;3.50;;;15.40;66.50;;;;;;4997559;28;20085;-83
2022/09/23 01:21:07;;;;;;;4.97;3.60;;;15.50;66.60;;;;;;5014254;28;20484;-83
2022/09/23 01:24:01;;;;;;;5.65;3.40;;;15.40;66.70;;;;;;5001594;28;20045;-84
2022/09/23 01:26:55;;;;;;;4.68;3.45;;;15.50;66.60;;;;;;5014040;28;20563;-83
2022/09/23 01:29:21;;;;;;;5.05;3.55;;;15.40;66.60;;;;;;5001423;28;20069;-84
2022/09/23 01:31:58;;;;;;;4.38;3.38;;;15.40;66.80;;;;;;4998766;28;20034;-84
2022/09/23 01:34:34;;;;;;;6.90;3.03;;;15.40;67.30;;;;;;5001451;28;20058;-83
2022/09/23 01:37:28;;;;;;;6.57;3.72;;;15.40;67.60;;;;;;4997329;28;20927;-83
2022/09/23 01:40:03;;;;;;;7.88;3.63;;;15.40;67.40;;;;;;5016813;28;20127;-83
2022/09/23 01:42:35;;;;;;;4.22;3.40;;;15.30;67.30;;;;;;5012982;28;20382;-84
2022/09/23 01:45:19;;;;;;;7.28;4.05;;;15.30;67.30;;;;;;4999268;28;20038;-83
2022/09/23 01:47:56;;;;;;;7.00;3.65;;;15.30;67.80;;;;;;4999555;28;20065;-83
2022/09/23 01:50:55;;;;;;;3.88;3.35;;;15.30;67.80;;;;;;5010218;28;20379;-83
2022/09/23 01:53:29;;;;;;;8.80;3.20;;;15.30;68.00;;;;;;5018801;28;20136;-83
2022/09/23 01:56:01;;;;;;;8.35;3.38;;;15.30;68.00;;;;;;5017997;28;20033;-83
2022/09/23 01:58:41;;;;;;;4.32;3.20;;;15.40;68.20;;;;;;5009490;28;20122;-83
2022/09/23 02:01:13;;;;;;;9.55;3.28;;;15.30;68.30;;;;;;4997030;28;20034;-84
2022/09/23 02:03:48;;;;;;;6.45;3.53;;;15.40;68.00;;;;;;4998879;28;20497;-83
2022/09/23 02:06:21;;;;;;;5.70;3.33;;;15.40;67.60;;;;;;4999123;28;20057;-83
2022/09/23 02:09:02;;;;;;;6.88;3.20;;;15.40;67.70;;;;;;5020591;28;20030;-83
2022/09/23 02:11:30;;;;;;;5.60;3.67;;;15.40;67.70;;;;;;5017643;28;20085;-83
2022/09/23 02:14:05;;;;;;;6.00;3.42;;;15.40;67.90;;;;;;5009198;28;20031;-83
2022/09/23 02:16:38;;;;;;;4.80;3.42;;;15.40;67.70;;;;;;4997914;28;20467;-83
2022/09/23 02:19:10;;;;;;;7.13;3.78;;;15.50;67.40;;;;;;4996117;28;20061;-83
2022/09/23 02:21:40;;;;;;;4.18;3.08;;;15.50;67.60;;;;;;5014589;28;20390;-82
2022/09/23 02:24:16;;;;;;;5.75;3.55;;;15.50;67.70;;;;;;4996332;28;20083;-83
2022/09/23 02:27:02;;;;;;;6.15;4.00;;;15.40;68.00;;;;;;4982478;28;20037;-83
2022/09/23 02:29:47;;;;;;;5.53;3.13;;;15.40;68.10;;;;;;4998189;28;20030;-82
2022/09/23 02:32:21;;;;;;;5.13;3.47;;;15.40;67.90;;;;;;5000738;28;20026;-83
2022/09/23 02:35:17;;;;;;;4.03;2.58;;;15.40;67.80;;;;;;4997741;28;20045;-83
2022/09/23 02:38:08;;;;;;;3.95;2.78;;;15.40;68.10;;;;;;4999950;28;20034;-83
2022/09/23 02:40:51;;;;;;;5.30;3.25;;;15.40;67.80;;;;;;4997487;28;20026;-83
2022/09/23 02:43:28;;;;;;;4.75;3.05;;;15.40;67.90;;;;;;5000415;28;20038;-83
2022/09/23 02:45:55;;;;;;;6.88;3.33;;;15.40;68.00;;;;;;4996459;28;20051;-82
2022/09/23 02:48:30;;;;;;;7.15;3.60;;;15.40;67.90;;;;;;4999197;28;20072;-83
2022/09/23 02:50:57;;;;;;;8.73;3.22;;;15.40;67.90;;;;;;4997791;28;20030;-82
2022/09/23 02:53:24;;;;;;;6.53;3.30;;;15.40;67.80;;;;;;4998600;28;20018;-83
2022/09/23 02:55:50;;;;;;;5.63;3.17;;;15.30;67.60;;;;;;4997338;28;20029;-83
2022/09/23 02:58:16;;;;;;;8.38;3.45;;;15.40;67.70;;;;;;4996532;28;20019;-83
2022/09/23 03:00:54;;;;;;;5.22;3.08;;;15.40;67.90;;;;;;5000649;28;20069;-82
2022/09/23 03:03:31;;;;;;;4.88;3.50;;;15.40;67.80;;;;;;4997513;28;20029;-83
2022/09/23 03:05:59;;;;;;;4.20;3.25;;;15.40;67.80;;;;;;4999393;28;20034;-83
2022/09/23 03:08:57;;;;;;;6.40;3.45;;;15.40;67.80;;;;;;4997375;28;20398;-83
2022/09/23 03:11:23;;;;;;;6.75;3.53;;;15.40;68.20;;;;;;5011078;28;20037;-83
2022/09/23 03:14:22;;;;;;;5.60;3.58;;;15.30;68.40;;;;;;5003563;28;20030;-83
2022/09/23 03:17:26;;;;;;;6.10;3.53;;;15.30;68.10;;;;;;4999192;28;20034;-83
2022/09/23 03:19:59;;;;;;;4.82;3.28;;;15.30;68.40;;;;;;4936639;29;20500;-83
2022/09/23 03:22:41;;;;;;;6.10;3.13;;;15.30;68.70;;;;;;4991138;28;20038;-83
2022/09/23 03:25:22;;;;;;;3.80;2.80;;;15.30;67.90;;;;;;4995455;28;20026;-83
2022/09/23 03:27:49;;;;;;;5.63;3.05;;;15.30;68.50;;;;;;4998807;28;20030;-83
2022/09/23 03:30:17;;;;;;;5.97;3.38;;;15.30;68.40;;;;;;5016435;28;20555;-83
2022/09/23 03:32:45;;;;;;;3.47;2.90;;;15.30;68.50;;;;;;5015462;28;20044;-83
2022/09/23 03:35:12;;;;;;;7.25;3.35;;;15.30;68.90;;;;;;4999060;28;20726;-83
2022/09/23 03:37:54;;;;;;;4.35;2.63;;;15.40;68.40;;;;;;4996214;28;20026;-83
2022/09/23 03:40:28;;;;;;;3.80;3.05;;;15.30;69.00;;;;;;4997706;28;20027;-83
2022/09/23 03:43:00;;;;;;;4.45;2.72;;;15.30;68.90;;;;;;4996348;28;20076;-82
2022/09/23 03:45:30;;;;;;;4.35;2.65;;;15.30;69.10;;;;;;4997806;28;20046;-82
2022/09/23 03:47:56;;;;;;;4.38;3.28;;;15.20;69.50;;;;;;4996352;28;20030;-83
2022/09/23 03:50:24;;;;;;;5.05;3.35;;;15.20;69.00;;;;;;4996540;28;20030;-83
2022/09/23 03:52:50;;;;;;;5.00;2.88;;;15.10;69.20;;;;;;4996931;28;20497;-83
2022/09/23 03:55:17;;;;;;;4.22;3.38;;;14.90;69.40;;;;;;4995782;28;20117;-82
2022/09/23 03:57:44;;;;;;;7.35;3.50;;;14.90;69.70;;;;;;5014421;28;20038;-83
2022/09/23 04:00:11;;;;;;;5.50;3.03;;;14.80;69.80;;;;;;5011577;28;20441;-83
2022/09/23 04:02:37;;;;;;;4.65;3.38;;;14.80;69.80;;;;;;4998677;28;20031;-82
2022/09/23 04:05:03;;;;;;;5.50;3.50;;;14.80;69.80;;;;;;4995093;28;20113;-83
2022/09/23 04:07:29;;;;;;;6.13;3.65;;;14.80;69.40;;;;;;5001182;28;20124;-83
2022/09/23 04:09:55;;;;;;;4.45;3.15;;;14.90;69.20;;;;;;5016843;28;20028;-83
2022/09/23 04:12:21;;;;;;;8.25;3.63;;;15.00;68.90;;;;;;4997847;28;20136;-83
2022/09/23 04:14:47;;;;;;;6.63;4.18;;;15.00;68.70;;;;;;4996995;28;20453;-83
2022/09/23 04:17:12;;;;;;;5.07;3.05;;;15.00;68.90;;;;;;4995778;28;20042;-83
2022/09/23 04:19:38;;;;;;;5.15;3.40;;;15.10;68.50;;;;;;4998485;28;20026;-83
2022/09/23 04:22:05;;;;;;;6.53;3.65;;;15.00;68.30;;;;;;5011659;28;20034;-83
2022/09/23 04:24:33;;;;;;;4.65;3.45;;;15.00;68.60;;;;;;4997829;28;20026;-83
2022/09/23 04:26:59;;;;;;;5.00;3.50;;;15.00;68.80;;;;;;4995423;28;20038;-83
2022/09/23 04:29:25;;;;;;;5.32;3.80;;;15.00;68.60;;;;;;5010880;28;20038;-79
2022/09/23 04:31:51;;;;;;;6.65;2.92;;;15.10;69.00;;;;;;5016144;28;20026;-82
2022/09/23 04:34:18;;;;;;;5.07;3.65;;;15.10;68.80;;;;;;5014055;28;20079;-77
2022/09/23 04:36:45;;;;;;;4.90;3.20;;;15.10;68.70;;;;;;5015090;28;20086;-76
2022/09/23 04:39:12;;;;;;;7.18;3.75;;;15.00;69.10;;;;;;5015419;28;20461;-81
2022/09/23 04:41:37;;;;;;;6.85;3.70;;;15.00;68.90;;;;;;5029791;28;20034;-77
2022/09/23 04:44:04;;;;;;;5.18;3.05;;;15.00;68.90;;;;;;4995858;28;20072;-77
2022/09/23 04:46:30;;;;;;;6.95;3.75;;;15.00;69.10;;;;;;5010634;28;20073;-77
2022/09/23 04:48:56;;;;;;;6.40;3.70;;;15.00;69.20;;;;;;4994369;28;20438;-78
2022/09/23 04:51:23;;;;;;;5.53;4.22;;;15.10;68.70;;;;;;4998920;28;20057;-77
2022/09/23 04:53:51;;;;;;;5.53;3.28;;;15.10;68.70;;;;;;4999457;28;20105;-76
2022/09/23 04:56:18;;;;;;;6.15;3.85;;;15.00;68.90;;;;;;5014840;28;20042;-77
2022/09/23 04:58:44;;;;;;;7.32;3.72;;;15.00;69.50;;;;;;4999368;28;20018;-76
2022/09/23 05:01:17;;;;;;;6.88;3.90;;;15.00;69.60;;;;;;5010048;28;20026;-77
2022/09/23 05:03:43;;;;;;;6.97;4.03;;;15.00;69.60;;;;;;5000530;28;20103;-81
2022/09/23 05:06:12;;;;;;;7.18;3.55;;;14.90;69.60;;;;;;5020383;28;20097;-78
2022/09/23 05:08:46;;;;;;;7.07;4.07;;;14.90;69.70;;;;;;4996293;28;20030;-81
2022/09/23 05:11:12;;;;;;;4.80;3.25;;;15.00;69.70;;;;;;5017316;28;20018;-81
2022/09/23 05:13:38;;;;;;;5.80;3.60;;;15.00;69.80;;;;;;5019034;28;20029;-81
2022/09/23 05:16:06;;;;;;;7.50;3.40;;;15.00;69.80;;;;;;4991930;28;20034;-81
2022/09/23 05:18:39;;;;;;;4.80;3.42;;;15.00;69.20;;;;;;5016079;28;20112;-82
2022/09/23 05:21:09;;;;;;;6.97;3.75;;;15.00;69.10;;;;;;5000021;28;20030;-80
2022/09/23 05:23:35;;;;;;;6.43;3.38;;;15.00;69.60;;;;;;5015645;28;20030;-81
2022/09/23 05:26:04;;;;;;;7.57;4.15;;;15.00;69.30;;;;;;5015616;28;20036;-81
2022/09/23 05:28:31;;;;;;;4.50;3.45;;;15.00;69.70;;;;;;5017850;28;20022;-81
2022/09/23 05:31:13;;;;;;;4.78;3.55;;;15.00;69.30;;;;;;5002507;28;20026;-81
2022/09/23 05:33:40;;;;;;;4.50;3.20;;;15.00;69.50;;;;;;5014498;28;20030;-81
2022/09/23 05:36:06;;;;;;;7.45;4.03;;;15.00;69.90;;;;;;5015685;28;20025;-80
2022/09/23 05:38:33;;;;;;;4.97;3.25;;;15.00;69.30;;;;;;4999413;28;20030;-79
2022/09/23 05:41:01;;;;;;;6.78;4.13;;;15.00;69.80;;;;;;5017446;28;20016;-79
2022/09/23 05:43:27;;;;;;;7.80;3.97;;;15.00;69.90;;;;;;5031606;28;20057;-79
2022/09/23 05:46:04;;;;;;;7.10;4.22;;;15.00;69.90;;;;;;5001901;28;20088;-80
2022/09/23 05:48:30;;;;;;;7.63;4.10;;;15.00;69.80;;;;;;4996239;28;20053;-79
2022/09/23 05:50:56;;;;;;;9.15;4.28;;;15.00;69.60;;;;;;4996672;28;20018;-79
2022/09/23 05:53:22;;;;;;;7.72;3.80;;;15.00;69.90;;;;;;4998372;28;20045;-79
2022/09/23 05:55:47;;;;;;;5.55;4.22;;;15.00;69.50;;;;;;4997470;28;20026;-79
2022/09/23 05:58:14;;;;;;;9.23;3.80;;;15.00;70.00;;;;;;4998833;28;20034;-79
2022/09/23 06:00:41;;;;;;;4.75;3.10;;;15.10;69.90;;;;;;4997131;28;20026;-79
2022/09/23 06:03:17;;;;;;;4.30;3.60;;;15.00;69.80;;;;;;4996335;28;20038;-79
2022/09/23 06:05:44;;;;;;;4.55;3.05;;;15.00;70.00;;;;;;5013149;28;20402;-79
2022/09/23 06:08:10;;;;;;;5.35;3.03;;;15.00;70.00;;;;;;4998497;28;20046;-79
2022/09/23 06:10:41;;;;;;;6.88;3.05;;;15.00;70.30;;;;;;5006832;28;20713;-79
2022/09/23 06:13:07;;;;;;;;;;;15.00;70.30;;;;;;5018622;28;20465;-79
2022/09/23 06:15:33;;;;;;;5.47;3.25;;;15.00;70.20;;;;;;5018046;28;19918;-79
2022/09/23 06:17:59;;;;;;;5.65;3.67;;;15.00;70.10;;;;;;5000425;28;20026;-80
2022/09/23 06:20:25;;;;;;;5.10;3.42;;;15.00;70.10;;;;;;4988185;28;20040;-80
2022/09/23 06:22:51;;;;;;;6.35;3.58;;;15.00;70.10;;;;;;4998967;28;20033;-80
2022/09/23 06:25:18;;;;;;;8.23;3.88;;;15.10;70.00;;;;;;4998788;28;20022;-79
2022/09/23 06:27:53;;;;;;;5.63;3.30;;;15.10;70.20;;;;;;4998355;28;20093;-80
2022/09/23 06:30:19;;;;;;;5.28;3.45;;;15.10;69.90;;;;;;4998322;28;20569;-80
2022/09/23 06:32:52;;;;;;;7.78;3.42;;;15.00;70.00;;;;;;4998020;28;20027;-79
2022/09/23 06:35:18;;;;;;;8.07;3.67;;;15.10;70.00;;;;;;4998569;28;20052;-79
2022/09/23 06:37:45;;;;;;;6.60;3.75;;;15.00;70.10;;;;;;4998571;28;20026;-79
2022/09/23 06:40:13;;;;;;;8.57;3.72;;;15.00;70.20;;;;;;4996815;28;20030;-79
2022/09/23 06:42:39;;;;;;;7.18;3.78;;;15.00;70.30;;;;;;4998418;28;20026;-79
2022/09/23 06:45:05;;;;;;;9.02;4.03;;;15.10;70.20;;;;;;4997720;28;20086;-79
2022/09/23 06:47:31;;;;;;;6.15;4.00;;;15.10;70.20;;;;;;4996876;28;20026;-79
2022/09/23 06:49:56;;;;;;;4.20;3.33;;;15.00;70.10;;;;;;4998001;28;20125;-80
2022/09/23 06:52:22;;;;;;;8.65;4.03;;;15.10;69.90;;;;;;4997811;28;20023;-79
2022/09/23 06:54:47;;;;;;;4.90;4.20;;;15.10;70.40;;;;;;4998049;28;20034;-80
2022/09/23 06:57:13;;;;;;;5.68;3.33;;;15.10;70.50;;;;;;4997900;28;20493;-80
2022/09/23 06:59:40;;;;;;;4.97;3.70;;;15.10;70.90;;;;;;4996402;28;20026;-80
2022/09/23 07:02:08;;;;;;;8.02;4.28;;;15.10;70.00;;;;;;5012939;28;20500;-80
2022/09/23 07:04:33;;;;;;;6.03;4.05;;;15.10;70.30;;;;;;4995961;28;20058;-80
2022/09/23 07:06:59;;;;;;;5.13;3.90;;;15.20;70.60;;;;;;4997500;28;20022;-80
2022/09/23 07:09:25;;;;;;;6.53;3.47;;;15.10;70.50;;;;;;4997508;28;20030;-80
2022/09/23 07:11:50;;;;;;;6.45;5.15;;;15.20;70.50;;;;;;4999163;28;20030;-80
2022/09/23 07:14:16;;;;;;;6.40;4.18;;;15.20;70.60;;;;;;4997332;28;20037;-80
2022/09/23 07:16:42;;;;;;;7.55;3.92;;;15.20;71.00;;;;;;4997847;28;20065;-80
2022/09/23 07:19:07;;;;;;;8.90;5.00;;;15.20;71.20;;;;;;4996131;28;20072;-79
2022/09/23 07:21:33;;;;;;;6.57;3.88;;;15.30;70.60;;;;;;4997217;28;20026;-79
2022/09/23 07:23:59;;;;;;;9.23;4.15;;;15.30;70.40;;;;;;5012725;28;20038;-80
2022/09/23 07:26:25;;;;;;;7.13;4.35;;;15.20;71.10;;;;;;4997215;28;20037;-79
2022/09/23 07:28:55;;;;;;;7.55;4.00;;;15.20;71.50;;;;;;5012266;28;20501;-79
2022/09/23 07:31:21;;;;;;;;;;;15.20;71.70;;;;;;4997421;28;20075;-79
2022/09/23 07:33:47;;;;;;;9.57;4.75;;;15.30;71.50;;;;;;4979331;28;19910;-80
2022/09/23 07:36:17;;;;;;;7.45;4.68;;;15.30;71.20;;;;;;5006071;28;20113;-79
2022/09/23 07:38:43;;;;;;;6.88;4.13;;;15.30;70.60;;;;;;5014172;28;20025;-80
2022/09/23 07:41:11;;;;;;;8.23;4.32;;;15.30;70.90;;;;;;5011741;28;20037;-79
2022/09/23 07:43:38;;;;;;;7.43;4.93;;;15.30;70.50;;;;;;4996904;28;20387;-80
2022/09/23 07:46:07;;;;;;;7.78;5.05;;;15.30;70.50;;;;;;4995419;28;20046;-80
2022/09/23 07:48:34;;;;;;;9.43;4.93;;;15.40;70.40;;;;;;4996926;28;20031;-80
2022/09/23 07:51:25;;;;;;;8.27;4.78;;;15.40;69.80;;;;;;4996948;28;20052;-80
2022/09/23 07:53:52;;;;;;;6.95;4.45;;;15.40;70.10;;;;;;4996217;28;20045;-80
2022/09/23 07:56:19;;;;;;;10.95;4.32;;;15.40;70.30;;;;;;4997207;28;20042;-79
2022/09/23 07:58:58;;;;;;;5.65;4.78;;;15.50;70.10;;;;;;4997103;28;20354;-79
2022/09/23 08:01:26;;;;;;;10.38;5.55;;;15.50;69.70;;;;;;4997318;28;20038;-79
2022/09/23 08:03:52;;;;;;;7.03;4.75;;;15.60;69.50;;;;;;4996563;28;20160;-80
2022/09/23 08:06:18;;;;;;;6.50;4.05;;;15.60;69.80;;;;;;5005468;28;20053;-80
2022/09/23 08:08:44;;;;;;;9.90;4.65;;;15.60;69.80;;;;;;5000974;28;20490;-80
2022/09/23 08:11:13;;;;;;;8.23;5.35;;;15.70;69.60;;;;;;5008977;28;20048;-80
2022/09/23 08:13:38;;;;;;;6.65;4.93;;;15.70;69.30;;;;;;4994880;28;20022;-79
2022/09/23 08:16:05;;;;;;;6.43;4.78;;;15.70;69.70;;;;;;4996336;28;20081;-79
2022/09/23 08:18:31;;;;;;;6.82;4.38;;;15.80;69.70;;;;;;4996306;28;20569;-80
2022/09/23 08:20:58;;;;;;;7.15;5.15;;;15.80;69.70;;;;;;5011616;28;20037;-80
2022/09/23 08:23:24;;;;;;;9.82;5.03;;;15.80;70.00;;;;;;4996397;28;20436;-80
2022/09/23 08:25:58;;;;;;;8.85;5.15;;;15.80;69.90;;;;;;4993811;28;20394;-80
2022/09/23 08:28:24;;;;;;;10.00;5.20;;;15.90;70.10;;;;;;4996264;28;20030;-80
2022/09/23 08:30:50;;;;;;;7.68;5.47;;;15.90;70.10;;;;;;4995992;28;20033;-80
2022/09/23 08:33:16;;;;;;;11.90;5.82;;;15.90;69.80;;;;;;5011812;28;20030;-80
2022/09/23 08:35:42;;;;;;;9.05;5.47;;;15.90;70.30;;;;;;4996232;28;20176;-80
2022/09/23 08:38:08;;;;;;;9.35;5.80;;;16.00;69.60;;;;;;4996641;28;20030;-80
2022/09/23 08:40:37;;;;;;;11.18;5.88;;;16.00;69.60;;;;;;4996416;28;20027;-80
2022/09/23 08:43:06;;;;;;;11.68;5.95;;;16.10;69.60;;;;;;4996117;28;20030;-80
2022/09/23 08:45:33;;;;;;;8.48;5.55;;;16.00;69.20;;;;;;4996444;28;20035;-80
2022/09/23 08:48:11;;;;;;;14.60;6.25;;;16.00;69.70;;;;;;4996176;28;20030;-80
2022/09/23 08:50:44;;;;;;;9.40;5.90;;;16.10;69.90;;;;;;4995998;28;20039;-80
2022/09/23 08:53:31;;;;;;;15.18;6.03;;;16.10;69.40;;;;;;4996366;28;20045;-80
2022/09/23 08:55:59;;;;;;;12.45;7.25;;;16.10;69.50;;;;;;5011585;28;20125;-80
2022/09/23 08:59:02;;;;;;;11.88;6.25;;;16.20;70.00;;;;;;4995972;28;20379;-80
2022/09/23 09:01:36;;;;;;;7.90;5.40;;;16.30;69.50;;;;;;4995708;28;20027;-80
2022/09/23 09:04:16;;;;;;;9.10;6.10;;;16.30;70.00;;;;;;4996299;28;20022;-80
2022/09/23 09:06:56;;;;;;;7.00;5.50;;;16.30;70.00;;;;;;4995983;28;20027;-80
2022/09/23 09:09:24;;;;;;;12.40;5.30;;;16.30;69.70;;;;;;4996066;28;20073;-80
2022/09/23 09:11:54;;;;;;;10.65;6.20;;;16.30;70.10;;;;;;5007492;28;20434;-80
2022/09/23 09:14:38;;;;;;;11.80;7.15;;;16.30;70.10;;;;;;5011130;28;20503;-80
2022/09/23 09:17:07;;;;;;;14.23;8.48;;;16.30;70.70;;;;;;4995676;28;20030;-80
2022/09/23 09:19:51;;;;;;;17.77;8.30;;;16.30;70.40;;;;;;4995775;28;20386;-80
2022/09/23 09:22:51;;;;;;;12.70;6.78;;;16.40;70.40;;;;;;4994677;28;20052;-80
2022/09/23 09:25:36;;;;;;;17.33;10.77;;;16.40;69.80;;;;;;5011084;28;20093;-80
2022/09/23 09:28:26;;;;;;;26.58;13.38;;;16.50;69.50;;;;;;4995774;28;20022;-79
2022/09/23 09:30:56;;;;;;;28.73;12.60;;;16.50;69.20;;;;;;4995755;28;20038;-80
2022/09/23 09:33:35;;;;;;;25.30;11.20;;;16.70;68.70;;;;;;4996048;28;20045;-80
2022/09/23 09:36:29;;;;;;;29.90;14.00;;;16.70;68.80;;;;;;4980682;28;20045;-80
2022/09/23 09:38:58;;;;;;;26.33;12.88;;;16.80;69.00;;;;;;4999935;28;20041;-80
2022/09/23 09:41:27;;;;;;;23.30;11.63;;;16.80;68.30;;;;;;4999197;28;20036;-80
2022/09/23 09:43:58;;;;;;;23.70;12.40;;;16.80;69.10;;;;;;4998927;28;20027;-79
2022/09/23 09:46:39;;;;;;;20.92;10.82;;;16.90;68.60;;;;;;4998999;28;20081;-79
2022/09/23 09:49:07;;;;;;;21.58;11.05;;;16.90;68.50;;;;;;4999268;28;20422;-79
2022/09/23 09:51:34;;;;;;;21.00;9.32;;;17.00;68.00;;;;;;4998984;28;20027;-79
2022/09/23 09:54:24;;;;;;;14.65;7.93;;;17.00;68.10;;;;;;4998958;28;20367;-79
2022/09/23 09:56:52;;;;;;;11.65;6.93;;;17.10;68.00;;;;;;4981152;28;20398;-79
2022/09/23 09:59:24;;;;;;;13.50;7.75;;;17.10;68.00;;;;;;4997985;28;20490;-79
2022/09/23 10:02:20;;;;;;;10.68;7.20;;;17.20;67.50;;;;;;4997275;28;20044;-79
2022/09/23 10:04:56;;;;;;;10.65;7.00;;;17.10;67.80;;;;;;5004761;28;20029;-80
2022/09/23 10:07:25;;;;;;;13.35;7.72;;;17.10;68.20;;;;;;4998823;28;20022;-80
2022/09/23 10:09:51;;;;;;;11.68;6.65;;;17.10;68.00;;;;;;5001043;28;20050;-80
2022/09/23 10:12:22;;;;;;;10.95;7.10;;;17.10;68.60;;;;;;5000002;28;20579;-79
2022/09/23 10:14:51;;;;;;;11.40;6.22;;;17.00;68.70;;;;;;4997576;28;20022;-79
2022/09/23 10:17:23;;;;;;;12.02;7.57;;;17.10;68.60;;;;;;4998524;28;20382;-80
2022/09/23 10:19:59;;;;;;;11.95;7.40;;;17.10;68.40;;;;;;4998577;28;20065;-80
2022/09/23 10:22:35;;;;;;;10.38;6.45;;;17.00;68.10;;;;;;4998490;28;20486;-80
2022/09/23 10:25:06;;;;;;;12.20;6.93;;;17.10;68.20;;;;;;4998850;28;20030;-80
2022/09/23 10:27:34;;;;;;;10.98;7.28;;;17.10;68.00;;;;;;4998458;28;20144;-80
2022/09/23 10:30:17;;;;;;;13.73;7.20;;;17.10;67.90;;;;;;4998750;28;20114;-79
2022/09/23 10:32:44;;;;;;;12.63;7.63;;;17.20;67.90;;;;;;4996826;28;20103;-82
2022/09/23 10:35:12;;;;;;;10.35;7.43;;;17.20;67.60;;;;;;5004535;28;20034;-81
2022/09/23 10:37:55;;;;;;;11.77;7.25;;;17.20;68.10;;;;;;5017815;28;20034;-79
2022/09/23 10:46:43;;;;;;;8.90;6.40;;;17.40;68.20;;;;;;5001167;28;20104;-77
2022/09/23 10:49:36;;;;;;;11.02;7.20;;;17.50;68.10;;;;;;5022969;28;20470;-77
2022/09/23 10:52:15;;;;;;;11.73;7.07;;;17.60;67.60;;;;;;5003360;28;20030;-77
2022/09/23 10:54:49;;;;;;;11.05;7.13;;;17.70;67.40;;;;;;5013139;28;20030;-77
2022/09/23 10:57:41;;;;;;;11.05;7.30;;;17.80;67.90;;;;;;5012663;28;20034;-77
2022/09/23 11:00:41;;;;;;;9.80;7.22;;;17.90;67.70;;;;;;4997777;28;20081;-75
2022/09/23 11:03:34;;;;;;;13.97;7.33;;;17.90;67.80;;;;;;4997678;28;20125;-76
2022/09/23 11:06:12;;;;;;;13.05;7.40;;;18.00;68.00;;;;;;5004720;28;20026;-76
2022/09/23 11:08:56;;;;;;;12.27;7.78;;;18.00;67.30;;;;;;4997585;28;20482;-77
2022/09/23 11:11:28;;;;;;;11.57;7.63;;;18.00;67.10;;;;;;5027030;28;20113;-77
2022/09/23 11:14:15;;;;;;;16.80;7.25;;;18.00;67.10;;;;;;5017337;28;20363;-76
2022/09/23 11:16:53;;;;;;;10.95;6.25;;;18.20;66.70;;;;;;5016783;28;20028;-79
2022/09/23 11:19:45;;;;;;;11.15;7.20;;;18.30;67.00;;;;;;5017958;28;20544;-81
2022/09/23 11:22:34;;;;;;;13.07;7.68;;;18.30;66.10;;;;;;5002365;28;20026;-78
2022/09/23 11:25:27;;;;;;;12.40;7.53;;;18.30;66.20;;;;;;5013772;28;20022;-78
2022/09/23 11:28:05;;;;;;;9.18;6.72;;;18.40;65.80;;;;;;5008079;28;20077;-79
2022/09/23 11:31:10;;;;;;;11.80;6.95;;;18.50;65.90;;;;;;5014920;28;20065;-79
2022/09/23 11:34:05;;;;;;;14.80;7.10;;;18.60;66.20;;;;;;5013196;28;20033;-79
2022/09/23 11:36:38;;;;;;;9.60;6.40;;;18.70;65.60;;;;;;5015021;28;20030;-79
2022/09/23 11:39:19;;;;;;;12.30;7.63;;;18.70;65.30;;;;;;5004860;28;20045;-79
2022/09/23 11:41:47;;;;;;;13.90;7.88;;;18.60;64.90;;;;;;5013150;28;20041;-79
2022/09/23 11:44:41;;;;;;;18.42;7.88;;;18.60;65.20;;;;;;5012624;28;20133;-79
2022/09/23 11:47:28;;;;;;;13.93;6.75;;;18.50;64.90;;;;;;5020858;28;20042;-78
2022/09/23 11:50:39;;;;;;;13.70;6.72;;;18.60;65.50;;;;;;5012496;28;20026;-79
2022/09/23 11:53:32;;;;;;;18.67;8.15;;;18.50;64.90;;;;;;5012985;28;20030;-79
2022/09/23 11:56:03;;;;;;;13.93;7.40;;;18.40;64.90;;;;;;5014937;28;20030;-79
2022/09/23 11:58:37;;;;;;;12.68;8.05;;;18.50;65.60;;;;;;5019022;28;20064;-79
2022/09/23 12:01:31;;;;;;;14.18;7.22;;;18.50;66.10;;;;;;5004623;28;20014;-79
2022/09/23 12:04:20;;;;;;;11.50;7.40;;;18.60;65.90;;;;;;5014553;28;20060;-79
2022/09/23 12:06:53;;;;;;;12.87;8.10;;;18.70;65.70;;;;;;5008154;28;20490;-79
2022/09/23 12:09:33;;;;;;;10.73;7.15;;;18.80;65.30;;;;;;5014668;28;20109;-77
2022/09/23 12:12:16;;;;;;;12.27;8.10;;;18.80;65.10;;;;;;5015478;28;20080;-79
2022/09/23 12:15:03;;;;;;;10.90;6.82;;;18.80;65.10;;;;;;5010055;28;20065;-79
2022/09/23 12:17:37;;;;;;;11.43;6.93;;;18.80;65.00;;;;;;4996038;28;20512;-79
2022/09/23 12:20:31;;;;;;;9.95;6.93;;;18.80;64.50;;;;;;5011641;28;20386;-81
2022/09/23 12:23:13;;;;;;;12.55;7.20;;;18.90;64.40;;;;;;4994584;28;20057;-81
2022/09/23 12:25:56;;;;;;;11.63;7.32;;;18.90;64.50;;;;;;4996410;28;20019;-82
2022/09/23 12:28:28;;;;;;;12.05;7.35;;;19.00;64.50;;;;;;5008545;28;20517;-83
2022/09/23 12:30:59;;;;;;;11.38;7.28;;;19.00;64.90;;;;;;4994100;28;20109;-83
2022/09/23 12:33:31;;;;;;;13.48;8.13;;;19.00;65.00;;;;;;5015707;28;20111;-82
2022/09/23 12:36:04;;;;;;;12.23;7.07;;;19.00;64.90;;;;;;5015650;28;20022;-82
2022/09/23 12:38:47;;;;;;;12.82;8.30;;;19.00;64.70;;;;;;5013569;28;20022;-81
2022/09/23 12:41:22;;;;;;;11.20;7.18;;;19.10;64.20;;;;;;4997169;28;20029;-82
2022/09/23 12:43:56;;;;;;;11.45;7.75;;;19.10;64.20;;;;;;5015769;28;20041;-81
2022/09/23 12:46:24;;;;;;;13.38;7.72;;;19.10;64.50;;;;;;5016016;28;20049;-81
2022/09/23 12:48:59;;;;;;;12.25;6.28;;;19.10;64.30;;;;;;4996680;28;20030;-82
2022/09/23 12:51:35;;;;;;;9.48;6.57;;;19.20;63.90;;;;;;5011095;28;20033;-82
2022/09/23 12:54:03;;;;;;;16.70;7.75;;;19.20;64.00;;;;;;4994650;28;20070;-81
2022/09/23 12:56:35;;;;;;;10.55;6.97;;;19.30;63.90;;;;;;4994825;28;20023;-81
2022/09/23 12:59:24;;;;;;;10.45;7.50;;;19.30;64.00;;;;;;4995402;28;20041;-81
2022/09/23 13:01:50;;;;;;;10.52;6.53;;;19.30;64.70;;;;;;4993609;28;20061;-81
2022/09/23 13:07:32;;;;;;;12.55;6.85;;;19.30;64.10;;;;;;4994882;28;20081;-81
2022/09/23 13:10:27;;;;;;;13.63;7.10;;;19.40;64.20;;;;;;4997690;28;20034;-81
2022/09/23 13:12:55;;;;;;;13.02;7.57;;;19.60;63.90;;;;;;4998353;28;20450;-81
2022/09/23 13:15:31;;;;;;;11.07;7.07;;;19.70;64.00;;;;;;4998413;28;20062;-81
2022/09/23 13:18:43;;;;;;;11.77;6.22;;;19.70;63.90;;;;;;4998286;28;20102;-81
2022/09/23 13:21:38;;;;;;;10.65;6.82;;;19.80;63.80;;;;;;5006257;28;20089;-81
2022/09/23 13:24:21;;;;;;;12.75;7.57;;;19.90;63.50;;;;;;5032502;28;20030;-81